EGSS/STN METAR and TAF weather

Enter ICAO airport designator
Station Type Date Time Source
EGSS METAR 2020/03/29 11:50 UTC NOAA

EGSS 291150Z AUTO 03022G32KT 9000 -RASN SCT012/// BKN020/// BKN027/// //////TCU 03/01 Q1039


Station Type Date Time Source
EGSS Decoded METAR 2020/03/29 11:50 UTC NOAA

Stansted Airport, United Kingdom (EGSS) 51-53N 000-14E 0M
Mar 29, 2020 - 07:50 AM EDT / 2020.03.29 1150 UTC
Wind: from the NNE (030 degrees) at 25 MPH (22 KT) gusting to 37 MPH (32 KT):0
Visibility: 5 mile(s):0
Sky conditions: mostly cloudy
Weather: light rain, snow; Towering cumulus clouds observed
Temperature: 37 F (3 C)
Dew Point: 33 F (1 C)
Relative Humidity: 86%
Pressure (altimeter): 30.68 in. Hg (1039 hPa)
ob: EGSS 291150Z AUTO 03022G32KT 9000 -RASN SCT012/// BKN020/// BKN027/// //////TCU 03/01 Q1039
cycle: 12

Station Type Date Time Source
EGSS TAF 2020/03/29 12:09 UTC NOAA

TAF EGSS 291103Z 2912/3018 02018G28KT 9999 SCT035
TEMPO 2912/2921 6000 SHRA
BECMG 2918/2921 01008KT PROB30
TEMPO 2921/3009 3000 -SHRASN BKN006
BECMG 3009/3012 01015G25KT
TEMPO 3009/3018 6000 SHRA BKN009

Example: see airport list